sensor_id;sensor_type;location;lat;lon;timestamp;temperature;humidity
48648;DHT22;34437;-33.956;151.076;2023-05-10T00:02:11;16.30;57.90
48648;DHT22;34437;-33.956;151.076;2023-05-10T00:04:34;16.30;57.80
48648;DHT22;34437;-33.956;151.076;2023-05-10T00:06:56;16.30;57.90
48648;DHT22;34437;-33.956;151.076;2023-05-10T00:09:18;16.30;57.90
48648;DHT22;34437;-33.956;151.076;2023-05-10T00:11:41;16.30;57.80
48648;DHT22;34437;-33.956;151.076;2023-05-10T00:14:03;16.30;57.90
48648;DHT22;34437;-33.956;151.076;2023-05-10T00:16:26;16.30;57.90
48648;DHT22;34437;-33.956;151.076;2023-05-10T00:18:48;16.30;57.90
48648;DHT22;34437;-33.956;151.076;2023-05-10T00:21:11;16.30;57.90
48648;DHT22;34437;-33.956;151.076;2023-05-10T00:23:33;16.30;57.90
48648;DHT22;34437;-33.956;151.076;2023-05-10T00:25:56;16.30;57.90
48648;DHT22;34437;-33.956;151.076;2023-05-10T00:28:18;16.30;57.90
48648;DHT22;34437;-33.956;151.076;2023-05-10T00:30:41;16.30;57.90
48648;DHT22;34437;-33.956;151.076;2023-05-10T00:33:03;16.30;57.80
48648;DHT22;34437;-33.956;151.076;2023-05-10T00:35:26;16.40;57.90
48648;DHT22;34437;-33.956;151.076;2023-05-10T00:37:48;16.30;57.80
48648;DHT22;34437;-33.956;151.076;2023-05-10T00:40:11;16.40;57.80
48648;DHT22;34437;-33.956;151.076;2023-05-10T00:42:33;16.40;57.80
48648;DHT22;34437;-33.956;151.076;2023-05-10T00:44:56;16.40;57.70
48648;DHT22;34437;-33.956;151.076;2023-05-10T00:47:19;16.40;57.80
48648;DHT22;34437;-33.956;151.076;2023-05-10T00:49:41;16.40;57.80
48648;DHT22;34437;-33.956;151.076;2023-05-10T00:52:04;16.40;57.70
48648;DHT22;34437;-33.956;151.076;2023-05-10T00:54:27;16.40;57.70
48648;DHT22;34437;-33.956;151.076;2023-05-10T00:56:50;16.40;57.70
48648;DHT22;34437;-33.956;151.076;2023-05-10T00:59:13;16.40;57.80
48648;DHT22;34437;-33.956;151.076;2023-05-10T01:01:36;16.40;57.80
48648;DHT22;34437;-33.956;151.076;2023-05-10T01:03:58;16.40;57.80
48648;DHT22;34437;-33.956;151.076;2023-05-10T01:06:21;16.50;57.90
48648;DHT22;34437;-33.956;151.076;2023-05-10T01:08:44;16.50;58.00
48648;DHT22;34437;-33.956;151.076;2023-05-10T01:11:07;16.50;58.10
48648;DHT22;34437;-33.956;151.076;2023-05-10T01:13:37;16.50;58.30
48648;DHT22;34437;-33.956;151.076;2023-05-10T01:16:01;16.50;58.20
48648;DHT22;34437;-33.956;151.076;2023-05-10T01:18:25;16.60;58.30
48648;DHT22;34437;-33.956;151.076;2023-05-10T01:21:15;16.60;58.30
48648;DHT22;34437;-33.956;151.076;2023-05-10T01:29:30;16.60;58.50
48648;DHT22;34437;-33.956;151.076;2023-05-10T01:32:24;16.70;58.60
48648;DHT22;34437;-33.956;151.076;2023-05-10T01:37:25;16.70;58.60
48648;DHT22;34437;-33.956;151.076;2023-05-10T01:40:20;16.70;58.60
48648;DHT22;34437;-33.956;151.076;2023-05-10T01:42:50;16.80;58.60
48648;DHT22;34437;-33.956;151.076;2023-05-10T01:45:37;16.80;58.70
48648;DHT22;34437;-33.956;151.076;2023-05-10T01:48:11;16.80;58.80
48648;DHT22;34437;-33.956;151.076;2023-05-10T01:50:39;16.80;58.80
48648;DHT22;34437;-33.956;151.076;2023-05-10T01:53:07;16.80;58.80
48648;DHT22;34437;-33.956;151.076;2023-05-10T01:55:33;16.90;59.00
48648;DHT22;34437;-33.956;151.076;2023-05-10T01:58:07;16.90;59.10
48648;DHT22;34437;-33.956;151.076;2023-05-10T02:00:31;16.90;59.20
48648;DHT22;34437;-33.956;151.076;2023-05-10T02:02:54;16.90;59.30
48648;DHT22;34437;-33.956;151.076;2023-05-10T02:05:17;17.00;59.50
48648;DHT22;34437;-33.956;151.076;2023-05-10T02:07:41;17.00;59.50
48648;DHT22;34437;-33.956;151.076;2023-05-10T02:10:05;17.00;59.50
48648;DHT22;34437;-33.956;151.076;2023-05-10T02:12:30;17.00;59.60
48648;DHT22;34437;-33.956;151.076;2023-05-10T02:14:54;17.10;60.20
48648;DHT22;34437;-33.956;151.076;2023-05-10T02:17:17;17.10;59.60
48648;DHT22;34437;-33.956;151.076;2023-05-10T02:19:42;17.10;59.50
48648;DHT22;34437;-33.956;151.076;2023-05-10T02:22:05;17.10;59.40
48648;DHT22;34437;-33.956;151.076;2023-05-10T02:24:28;17.20;59.40
48648;DHT22;34437;-33.956;151.076;2023-05-10T02:26:54;17.20;59.40
48648;DHT22;34437;-33.956;151.076;2023-05-10T02:29:20;17.20;59.50
48648;DHT22;34437;-33.956;151.076;2023-05-10T02:31:45;17.20;59.40
48648;DHT22;34437;-33.956;151.076;2023-05-10T02:34:08;17.30;59.40
48648;DHT22;34437;-33.956;151.076;2023-05-10T02:36:32;17.30;59.40
48648;DHT22;34437;-33.956;151.076;2023-05-10T02:38:55;17.30;59.30
48648;DHT22;34437;-33.956;151.076;2023-05-10T02:41:19;17.30;59.20
48648;DHT22;34437;-33.956;151.076;2023-05-10T02:43:43;17.30;59.20
48648;DHT22;34437;-33.956;151.076;2023-05-10T02:46:06;17.40;59.20
48648;DHT22;34437;-33.956;151.076;2023-05-10T02:48:29;17.40;59.10
48648;DHT22;34437;-33.956;151.076;2023-05-10T02:50:52;17.40;59.10
48648;DHT22;34437;-33.956;151.076;2023-05-10T02:53:27;17.40;59.10
48648;DHT22;34437;-33.956;151.076;2023-05-10T02:55:53;17.50;59.00
48648;DHT22;34437;-33.956;151.076;2023-05-10T02:58:19;17.50;59.00
48648;DHT22;34437;-33.956;151.076;2023-05-10T03:00:42;17.50;58.90
48648;DHT22;34437;-33.956;151.076;2023-05-10T03:03:04;17.60;58.90
48648;DHT22;34437;-33.956;151.076;2023-05-10T03:05:28;17.60;58.80
48648;DHT22;34437;-33.956;151.076;2023-05-10T03:07:50;17.60;58.70
48648;DHT22;34437;-33.956;151.076;2023-05-10T03:10:13;17.70;58.70
48648;DHT22;34437;-33.956;151.076;2023-05-10T03:18:18;17.80;58.50
48648;DHT22;34437;-33.956;151.076;2023-05-10T03:23:22;17.90;58.30
48648;DHT22;34437;-33.956;151.076;2023-05-10T03:25:48;17.90;58.10
48648;DHT22;34437;-33.956;151.076;2023-05-10T03:28:12;18.00;58.10
48648;DHT22;34437;-33.956;151.076;2023-05-10T03:30:35;18.00;58.00
48648;DHT22;34437;-33.956;151.076;2023-05-10T03:33:07;18.10;58.00
48648;DHT22;34437;-33.956;151.076;2023-05-10T03:35:30;18.10;57.90
48648;DHT22;34437;-33.956;151.076;2023-05-10T03:37:52;18.20;57.80
48648;DHT22;34437;-33.956;151.076;2023-05-10T03:40:14;18.20;57.70
48648;DHT22;34437;-33.956;151.076;2023-05-10T03:42:37;18.20;57.60
48648;DHT22;34437;-33.956;151.076;2023-05-10T03:45:00;18.30;57.50
48648;DHT22;34437;-33.956;151.076;2023-05-10T03:47:22;18.40;57.40
48648;DHT22;34437;-33.956;151.076;2023-05-10T03:49:45;18.40;57.30
48648;DHT22;34437;-33.956;151.076;2023-05-10T03:52:07;18.50;57.30
48648;DHT22;34437;-33.956;151.076;2023-05-10T03:54:29;18.50;57.10
48648;DHT22;34437;-33.956;151.076;2023-05-10T03:56:52;18.60;57.00
48648;DHT22;34437;-33.956;151.076;2023-05-10T03:59:14;18.70;56.90
48648;DHT22;34437;-33.956;151.076;2023-05-10T04:01:37;18.70;56.70
48648;DHT22;34437;-33.956;151.076;2023-05-10T04:03:59;18.80;56.60
48648;DHT22;34437;-33.956;151.076;2023-05-10T04:06:21;18.90;56.50
48648;DHT22;34437;-33.956;151.076;2023-05-10T04:08:44;18.90;56.40
48648;DHT22;34437;-33.956;151.076;2023-05-10T04:11:08;19.00;56.30
48648;DHT22;34437;-33.956;151.076;2023-05-10T04:13:30;19.10;56.20
48648;DHT22;34437;-33.956;151.076;2023-05-10T04:15:52;19.10;56.10
48648;DHT22;34437;-33.956;151.076;2023-05-10T04:18:15;19.10;56.00
48648;DHT22;34437;-33.956;151.076;2023-05-10T04:20:38;19.20;56.00
48648;DHT22;34437;-33.956;151.076;2023-05-10T04:23:01;19.20;55.80
48648;DHT22;34437;-33.956;151.076;2023-05-10T04:25:23;19.30;55.80
48648;DHT22;34437;-33.956;151.076;2023-05-10T04:27:45;19.30;55.70
48648;DHT22;34437;-33.956;151.076;2023-05-10T04:30:08;19.40;55.60
48648;DHT22;34437;-33.956;151.076;2023-05-10T04:32:31;19.40;55.60
48648;DHT22;34437;-33.956;151.076;2023-05-10T04:34:54;19.50;55.40
48648;DHT22;34437;-33.956;151.076;2023-05-10T04:37:16;19.60;55.20
48648;DHT22;34437;-33.956;151.076;2023-05-10T04:39:38;19.70;55.10
48648;DHT22;34437;-33.956;151.076;2023-05-10T04:42:02;19.70;54.90
48648;DHT22;34437;-33.956;151.076;2023-05-10T04:44:25;19.80;54.80
48648;DHT22;34437;-33.956;151.076;2023-05-10T04:46:47;19.90;54.70
48648;DHT22;34437;-33.956;151.076;2023-05-10T04:49:09;20.00;54.70
48648;DHT22;34437;-33.956;151.076;2023-05-10T04:51:32;20.00;54.40
48648;DHT22;34437;-33.956;151.076;2023-05-10T04:53:54;20.10;54.40
48648;DHT22;34437;-33.956;151.076;2023-05-10T04:56:17;20.10;54.20
48648;DHT22;34437;-33.956;151.076;2023-05-10T04:58:39;20.20;54.30
48648;DHT22;34437;-33.956;151.076;2023-05-10T05:01:08;20.20;54.10
48648;DHT22;34437;-33.956;151.076;2023-05-10T05:03:32;20.30;54.00
48648;DHT22;34437;-33.956;151.076;2023-05-10T05:05:55;20.30;54.00
48648;DHT22;34437;-33.956;151.076;2023-05-10T05:08:17;20.40;53.90
48648;DHT22;34437;-33.956;151.076;2023-05-10T05:10:39;20.40;53.90
48648;DHT22;34437;-33.956;151.076;2023-05-10T05:13:02;20.40;53.80
48648;DHT22;34437;-33.956;151.076;2023-05-10T05:15:24;20.50;53.80
48648;DHT22;34437;-33.956;151.076;2023-05-10T05:17:47;20.50;53.70
48648;DHT22;34437;-33.956;151.076;2023-05-10T05:20:10;20.50;53.70
48648;DHT22;34437;-33.956;151.076;2023-05-10T05:22:32;20.50;53.60
48648;DHT22;34437;-33.956;151.076;2023-05-10T05:24:58;20.60;53.70
48648;DHT22;34437;-33.956;151.076;2023-05-10T05:27:20;20.50;53.50
48648;DHT22;34437;-33.956;151.076;2023-05-10T05:29:45;20.50;53.40
48648;DHT22;34437;-33.956;151.076;2023-05-10T05:32:08;20.50;53.40
48648;DHT22;34437;-33.956;151.076;2023-05-10T05:34:30;20.50;53.40
48648;DHT22;34437;-33.956;151.076;2023-05-10T05:36:52;20.60;53.80
48648;DHT22;34437;-33.956;151.076;2023-05-10T05:39:15;20.50;53.40
48648;DHT22;34437;-33.956;151.076;2023-05-10T05:41:38;20.50;53.40
48648;DHT22;34437;-33.956;151.076;2023-05-10T05:44:00;20.50;53.60
48648;DHT22;34437;-33.956;151.076;2023-05-10T05:46:22;20.40;53.60
48648;DHT22;34437;-33.956;151.076;2023-05-10T05:48:45;20.40;53.70
48648;DHT22;34437;-33.956;151.076;2023-05-10T05:51:07;20.40;53.80
48648;DHT22;34437;-33.956;151.076;2023-05-10T05:53:30;20.40;54.30
48648;DHT22;34437;-33.956;151.076;2023-05-10T05:58:15;20.30;54.00
48648;DHT22;34437;-33.956;151.076;2023-05-10T06:00:38;20.20;54.10
48648;DHT22;34437;-33.956;151.076;2023-05-10T06:03:00;20.20;54.20
48648;DHT22;34437;-33.956;151.076;2023-05-10T06:05:23;20.20;54.20
48648;DHT22;34437;-33.956;151.076;2023-05-10T06:07:45;20.20;54.30
48648;DHT22;34437;-33.956;151.076;2023-05-10T06:10:08;20.20;55.10
48648;DHT22;34437;-33.956;151.076;2023-05-10T06:12:31;20.20;54.50
48648;DHT22;34437;-33.956;151.076;2023-05-10T06:14:53;20.20;54.40
48648;DHT22;34437;-33.956;151.076;2023-05-10T06:17:15;20.20;54.50
48648;DHT22;34437;-33.956;151.076;2023-05-10T06:19:38;20.20;54.40
48648;DHT22;34437;-33.956;151.076;2023-05-10T06:22:00;20.20;54.50
48648;DHT22;34437;-33.956;151.076;2023-05-10T06:24:23;20.20;54.40
48648;DHT22;34437;-33.956;151.076;2023-05-10T06:26:45;20.20;54.50
48648;DHT22;34437;-33.956;151.076;2023-05-10T06:29:07;20.30;54.40
48648;DHT22;34437;-33.956;151.076;2023-05-10T06:31:30;20.30;54.30
48648;DHT22;34437;-33.956;151.076;2023-05-10T06:33:52;20.40;54.10
48648;DHT22;34437;-33.956;151.076;2023-05-10T06:36:14;20.70;53.30
48648;DHT22;34437;-33.956;151.076;2023-05-10T06:38:37;21.00;52.40
48648;DHT22;34437;-33.956;151.076;2023-05-10T06:40:59;21.10;52.20
48648;DHT22;34437;-33.956;151.076;2023-05-10T06:43:22;21.00;52.10
48648;DHT22;34437;-33.956;151.076;2023-05-10T06:45:46;21.20;52.10
48648;DHT22;34437;-33.956;151.076;2023-05-10T06:48:08;21.60;50.80
48648;DHT22;34437;-33.956;151.076;2023-05-10T06:50:30;22.00;49.70
48648;DHT22;34437;-33.956;151.076;2023-05-10T06:52:53;21.80;50.00
48648;DHT22;34437;-33.956;151.076;2023-05-10T06:55:17;21.40;50.80
48648;DHT22;34437;-33.956;151.076;2023-05-10T06:57:39;21.10;51.70
48648;DHT22;34437;-33.956;151.076;2023-05-10T07:00:02;20.80;52.20
48648;DHT22;34437;-33.956;151.076;2023-05-10T07:02:28;20.60;52.70
48648;DHT22;34437;-33.956;151.076;2023-05-10T07:04:50;20.40;53.10
48648;DHT22;34437;-33.956;151.076;2023-05-10T07:07:14;20.30;53.40
48648;DHT22;34437;-33.956;151.076;2023-05-10T07:09:36;20.20;53.50
48648;DHT22;34437;-33.956;151.076;2023-05-10T07:11:59;20.10;53.80
48648;DHT22;34437;-33.956;151.076;2023-05-10T07:14:22;20.10;54.00
48648;DHT22;34437;-33.956;151.076;2023-05-10T07:16:45;20.00;54.00
48648;DHT22;34437;-33.956;151.076;2023-05-10T07:19:07;20.00;54.30
48648;DHT22;34437;-33.956;151.076;2023-05-10T07:21:30;19.90;54.40
48648;DHT22;34437;-33.956;151.076;2023-05-10T07:23:53;19.90;54.40
48648;DHT22;34437;-33.956;151.076;2023-05-10T07:26:15;19.80;54.70
48648;DHT22;34437;-33.956;151.076;2023-05-10T07:28:37;19.80;54.70
48648;DHT22;34437;-33.956;151.076;2023-05-10T07:31:00;19.80;54.90
48648;DHT22;34437;-33.956;151.076;2023-05-10T07:33:23;19.70;54.80
48648;DHT22;34437;-33.956;151.076;2023-05-10T07:35:45;19.70;54.90
48648;DHT22;34437;-33.956;151.076;2023-05-10T07:38:08;19.70;55.00
48648;DHT22;34437;-33.956;151.076;2023-05-10T07:40:32;19.70;55.10
48648;DHT22;34437;-33.956;151.076;2023-05-10T07:42:59;19.70;55.20
48648;DHT22;34437;-33.956;151.076;2023-05-10T07:45:24;19.60;55.20
48648;DHT22;34437;-33.956;151.076;2023-05-10T07:47:46;19.60;55.20
48648;DHT22;34437;-33.956;151.076;2023-05-10T07:50:09;19.60;55.30
48648;DHT22;34437;-33.956;151.076;2023-05-10T07:52:32;19.60;55.90
48648;DHT22;34437;-33.956;151.076;2023-05-10T07:54:54;19.60;55.30
48648;DHT22;34437;-33.956;151.076;2023-05-10T07:57:18;19.50;55.30
48648;DHT22;34437;-33.956;151.076;2023-05-10T07:59:41;19.50;55.30
48648;DHT22;34437;-33.956;151.076;2023-05-10T08:02:03;19.50;55.30
48648;DHT22;34437;-33.956;151.076;2023-05-10T08:04:26;19.50;55.30
48648;DHT22;34437;-33.956;151.076;2023-05-10T08:06:48;19.50;55.30
48648;DHT22;34437;-33.956;151.076;2023-05-10T08:09:11;19.50;55.30
48648;DHT22;34437;-33.956;151.076;2023-05-10T08:11:34;19.50;55.40
48648;DHT22;34437;-33.956;151.076;2023-05-10T08:13:57;19.50;55.40
48648;DHT22;34437;-33.956;151.076;2023-05-10T08:16:19;19.50;55.70
48648;DHT22;34437;-33.956;151.076;2023-05-10T08:18:42;19.50;56.10
48648;DHT22;34437;-33.956;151.076;2023-05-10T08:21:05;19.50;56.00
48648;DHT22;34437;-33.956;151.076;2023-05-10T08:23:28;19.50;56.00
48648;DHT22;34437;-33.956;151.076;2023-05-10T08:25:50;19.50;55.90
48648;DHT22;34437;-33.956;151.076;2023-05-10T08:28:12;19.40;55.80
48648;DHT22;34437;-33.956;151.076;2023-05-10T08:30:35;19.40;55.90
48648;DHT22;34437;-33.956;151.076;2023-05-10T08:32:57;19.40;56.00
48648;DHT22;34437;-33.956;151.076;2023-05-10T08:35:20;19.40;56.10
48648;DHT22;34437;-33.956;151.076;2023-05-10T08:37:42;19.40;56.10
48648;DHT22;34437;-33.956;151.076;2023-05-10T08:40:05;19.40;56.20
48648;DHT22;34437;-33.956;151.076;2023-05-10T08:42:30;19.40;56.50
48648;DHT22;34437;-33.956;151.076;2023-05-10T08:44:55;19.40;56.80
48648;DHT22;34437;-33.956;151.076;2023-05-10T08:47:18;19.40;57.10
48648;DHT22;34437;-33.956;151.076;2023-05-10T08:49:42;19.40;57.30
48648;DHT22;34437;-33.956;151.076;2023-05-10T08:52:06;19.40;57.60
48648;DHT22;34437;-33.956;151.076;2023-05-10T08:54:31;19.40;57.90
48648;DHT22;34437;-33.956;151.076;2023-05-10T08:56:53;19.40;58.00
48648;DHT22;34437;-33.956;151.076;2023-05-10T08:59:16;19.40;58.20
48648;DHT22;34437;-33.956;151.076;2023-05-10T09:01:39;19.40;58.20
48648;DHT22;34437;-33.956;151.076;2023-05-10T09:04:02;19.40;58.30
48648;DHT22;34437;-33.956;151.076;2023-05-10T09:06:26;19.50;58.60
48648;DHT22;34437;-33.956;151.076;2023-05-10T09:08:48;19.40;58.50
48648;DHT22;34437;-33.956;151.076;2023-05-10T09:11:12;19.50;58.70
48648;DHT22;34437;-33.956;151.076;2023-05-10T09:13:36;19.50;58.80
48648;DHT22;34437;-33.956;151.076;2023-05-10T09:15:58;19.40;58.80
48648;DHT22;34437;-33.956;151.076;2023-05-10T09:18:21;19.50;59.00
48648;DHT22;34437;-33.956;151.076;2023-05-10T09:20:44;19.50;58.90
48648;DHT22;34437;-33.956;151.076;2023-05-10T09:23:07;19.50;59.10
48648;DHT22;34437;-33.956;151.076;2023-05-10T09:25:29;19.50;59.10
48648;DHT22;34437;-33.956;151.076;2023-05-10T09:27:52;19.60;59.60
48648;DHT22;34437;-33.956;151.076;2023-05-10T09:30:33;19.50;59.50
48648;DHT22;34437;-33.956;151.076;2023-05-10T09:32:57;19.60;59.60
48648;DHT22;34437;-33.956;151.076;2023-05-10T09:35:19;19.60;59.40
48648;DHT22;34437;-33.956;151.076;2023-05-10T09:37:44;19.60;59.30
48648;DHT22;34437;-33.956;151.076;2023-05-10T09:40:18;19.70;59.40
48648;DHT22;34437;-33.956;151.076;2023-05-10T09:42:52;19.60;59.10
48648;DHT22;34437;-33.956;151.076;2023-05-10T09:45:15;19.70;58.80
48648;DHT22;34437;-33.956;151.076;2023-05-10T09:47:37;19.60;59.10
48648;DHT22;34437;-33.956;151.076;2023-05-10T09:50:01;19.70;59.30
48648;DHT22;34437;-33.956;151.076;2023-05-10T09:52:26;19.70;59.30
48648;DHT22;34437;-33.956;151.076;2023-05-10T09:54:55;19.70;59.00
48648;DHT22;34437;-33.956;151.076;2023-05-10T09:57:24;19.70;58.90
48648;DHT22;34437;-33.956;151.076;2023-05-10T09:59:47;19.70;59.60
48648;DHT22;34437;-33.956;151.076;2023-05-10T10:02:11;19.70;59.00
48648;DHT22;34437;-33.956;151.076;2023-05-10T10:04:40;19.80;59.00
48648;DHT22;34437;-33.956;151.076;2023-05-10T10:07:06;19.80;59.20
48648;DHT22;34437;-33.956;151.076;2023-05-10T10:09:32;19.80;59.10
48648;DHT22;34437;-33.956;151.076;2023-05-10T10:11:54;19.90;59.20
48648;DHT22;34437;-33.956;151.076;2023-05-10T10:14:19;19.90;59.20
48648;DHT22;34437;-33.956;151.076;2023-05-10T10:16:42;19.90;59.10
48648;DHT22;34437;-33.956;151.076;2023-05-10T10:19:05;19.90;59.10
48648;DHT22;34437;-33.956;151.076;2023-05-10T10:21:28;19.90;59.00
48648;DHT22;34437;-33.956;151.076;2023-05-10T10:23:51;20.00;59.00
48648;DHT22;34437;-33.956;151.076;2023-05-10T10:26:15;20.00;59.00
48648;DHT22;34437;-33.956;151.076;2023-05-10T10:30:13;20.00;59.00
48648;DHT22;34437;-33.956;151.076;2023-05-10T10:32:35;20.00;59.70
48648;DHT22;34437;-33.956;151.076;2023-05-10T10:35:00;20.00;59.00
48648;DHT22;34437;-33.956;151.076;2023-05-10T10:37:23;20.10;59.70
48648;DHT22;34437;-33.956;151.076;2023-05-10T10:39:48;20.10;59.20
48648;DHT22;34437;-33.956;151.076;2023-05-10T10:42:12;20.10;59.40
48648;DHT22;34437;-33.956;151.076;2023-05-10T10:44:36;20.10;59.40
48648;DHT22;34437;-33.956;151.076;2023-05-10T10:49:52;20.10;59.70
48648;DHT22;34437;-33.956;151.076;2023-05-10T10:52:31;20.10;59.70
48648;DHT22;34437;-33.956;151.076;2023-05-10T10:55:08;20.10;59.80
48648;DHT22;34437;-33.956;151.076;2023-05-10T10:57:45;20.10;59.80
48648;DHT22;34437;-33.956;151.076;2023-05-10T11:00:24;20.10;59.90
48648;DHT22;34437;-33.956;151.076;2023-05-10T11:02:49;20.10;59.80
48648;DHT22;34437;-33.956;151.076;2023-05-10T11:05:44;20.10;60.00
48648;DHT22;34437;-33.956;151.076;2023-05-10T11:08:29;20.20;59.90
48648;DHT22;34437;-33.956;151.076;2023-05-10T11:10:54;20.20;59.80
48648;DHT22;34437;-33.956;151.076;2023-05-10T11:13:42;20.20;59.70
48648;DHT22;34437;-33.956;151.076;2023-05-10T11:16:28;20.20;59.70
48648;DHT22;34437;-33.956;151.076;2023-05-10T11:18:54;20.30;59.50
48648;DHT22;34437;-33.956;151.076;2023-05-10T11:21:18;20.30;58.50
48648;DHT22;34437;-33.956;151.076;2023-05-10T11:26:09;20.20;57.60
48648;DHT22;34437;-33.956;151.076;2023-05-10T11:28:32;20.20;57.40
48648;DHT22;34437;-33.956;151.076;2023-05-10T11:30:55;20.10;57.30
48648;DHT22;34437;-33.956;151.076;2023-05-10T11:34:03;20.10;57.30
48648;DHT22;34437;-33.956;151.076;2023-05-10T11:36:26;20.10;57.20
48648;DHT22;34437;-33.956;151.076;2023-05-10T11:38:57;20.00;57.40
48648;DHT22;34437;-33.956;151.076;2023-05-10T11:41:20;20.00;58.40
48648;DHT22;34437;-33.956;151.076;2023-05-10T11:43:53;20.00;58.70
48648;DHT22;34437;-33.956;151.076;2023-05-10T11:46:17;20.00;58.90
48648;DHT22;34437;-33.956;151.076;2023-05-10T11:48:43;19.90;59.20
48648;DHT22;34437;-33.956;151.076;2023-05-10T11:51:07;19.90;59.40
48648;DHT22;34437;-33.956;151.076;2023-05-10T11:53:33;19.90;60.00
48648;DHT22;34437;-33.956;151.076;2023-05-10T11:56:02;19.90;60.00
48648;DHT22;34437;-33.956;151.076;2023-05-10T11:58:31;19.90;60.20
48648;DHT22;34437;-33.956;151.076;2023-05-10T12:04:17;20.00;60.00
48648;DHT22;34437;-33.956;151.076;2023-05-10T12:06:40;19.90;59.90
48648;DHT22;34437;-33.956;151.076;2023-05-10T12:09:06;19.90;60.00
48648;DHT22;34437;-33.956;151.076;2023-05-10T12:11:30;19.90;60.00
48648;DHT22;34437;-33.956;151.076;2023-05-10T12:13:53;19.90;60.00
48648;DHT22;34437;-33.956;151.076;2023-05-10T12:16:24;19.90;60.00
48648;DHT22;34437;-33.956;151.076;2023-05-10T12:18:58;19.90;60.30
48648;DHT22;34437;-33.956;151.076;2023-05-10T12:21:21;19.90;60.30
48648;DHT22;34437;-33.956;151.076;2023-05-10T12:23:46;19.90;60.40
48648;DHT22;34437;-33.956;151.076;2023-05-10T12:26:10;19.90;60.40
48648;DHT22;34437;-33.956;151.076;2023-05-10T12:28:33;19.90;60.30
48648;DHT22;34437;-33.956;151.076;2023-05-10T12:30:55;19.90;60.40
48648;DHT22;34437;-33.956;151.076;2023-05-10T12:33:19;19.90;60.50
48648;DHT22;34437;-33.956;151.076;2023-05-10T12:35:47;19.90;60.30
48648;DHT22;34437;-33.956;151.076;2023-05-10T12:40:52;19.90;60.30
48648;DHT22;34437;-33.956;151.076;2023-05-10T12:43:35;19.90;60.30
48648;DHT22;34437;-33.956;151.076;2023-05-10T12:45:58;19.90;60.30
48648;DHT22;34437;-33.956;151.076;2023-05-10T12:48:21;19.80;60.30
48648;DHT22;34437;-33.956;151.076;2023-05-10T12:50:43;19.90;60.40
48648;DHT22;34437;-33.956;151.076;2023-05-10T12:53:06;19.80;60.50
48648;DHT22;34437;-33.956;151.076;2023-05-10T12:55:29;19.80;60.50
48648;DHT22;34437;-33.956;151.076;2023-05-10T12:57:54;19.80;60.50
48648;DHT22;34437;-33.956;151.076;2023-05-10T13:00:17;19.80;60.50
48648;DHT22;34437;-33.956;151.076;2023-05-10T13:02:40;19.80;60.60
48648;DHT22;34437;-33.956;151.076;2023-05-10T13:05:02;19.80;60.60
48648;DHT22;34437;-33.956;151.076;2023-05-10T13:07:25;19.80;60.70
48648;DHT22;34437;-33.956;151.076;2023-05-10T13:09:47;19.80;60.60
48648;DHT22;34437;-33.956;151.076;2023-05-10T13:12:09;19.80;60.60
48648;DHT22;34437;-33.956;151.076;2023-05-10T13:14:32;19.70;60.50
48648;DHT22;34437;-33.956;151.076;2023-05-10T13:16:54;19.70;61.20
48648;DHT22;34437;-33.956;151.076;2023-05-10T13:19:17;19.70;60.50
48648;DHT22;34437;-33.956;151.076;2023-05-10T13:21:40;19.70;60.50
48648;DHT22;34437;-33.956;151.076;2023-05-10T13:24:08;19.60;60.40
48648;DHT22;34437;-33.956;151.076;2023-05-10T13:26:31;19.70;60.40
48648;DHT22;34437;-33.956;151.076;2023-05-10T13:28:54;19.60;60.50
48648;DHT22;34437;-33.956;151.076;2023-05-10T13:31:19;19.60;60.30
48648;DHT22;34437;-33.956;151.076;2023-05-10T13:33:42;19.60;60.20
48648;DHT22;34437;-33.956;151.076;2023-05-10T13:36:05;19.60;60.20
48648;DHT22;34437;-33.956;151.076;2023-05-10T13:38:31;19.60;60.30
48648;DHT22;34437;-33.956;151.076;2023-05-10T13:40:53;19.60;60.40
48648;DHT22;34437;-33.956;151.076;2023-05-10T13:43:16;19.50;60.10
48648;DHT22;34437;-33.956;151.076;2023-05-10T13:45:38;19.50;60.20
48648;DHT22;34437;-33.956;151.076;2023-05-10T13:48:06;19.50;60.20
48648;DHT22;34437;-33.956;151.076;2023-05-10T13:50:31;19.50;60.60
48648;DHT22;34437;-33.956;151.076;2023-05-10T13:53:00;19.50;60.70
48648;DHT22;34437;-33.956;151.076;2023-05-10T13:55:23;19.40;60.30
48648;DHT22;34437;-33.956;151.076;2023-05-10T13:57:45;19.40;60.20
48648;DHT22;34437;-33.956;151.076;2023-05-10T14:00:08;19.40;60.20
48648;DHT22;34437;-33.956;151.076;2023-05-10T14:02:31;19.40;60.30
48648;DHT22;34437;-33.956;151.076;2023-05-10T14:04:53;19.40;60.60
48648;DHT22;34437;-33.956;151.076;2023-05-10T14:07:16;19.40;61.00
48648;DHT22;34437;-33.956;151.076;2023-05-10T14:09:39;19.40;61.20
48648;DHT22;34437;-33.956;151.076;2023-05-10T14:12:01;19.40;61.30
48648;DHT22;34437;-33.956;151.076;2023-05-10T14:14:25;19.40;61.40
48648;DHT22;34437;-33.956;151.076;2023-05-10T14:16:48;19.40;61.10
48648;DHT22;34437;-33.956;151.076;2023-05-10T14:19:10;19.40;61.10
48648;DHT22;34437;-33.956;151.076;2023-05-10T14:21:33;19.40;61.10
48648;DHT22;34437;-33.956;151.076;2023-05-10T14:23:56;19.40;60.60
48648;DHT22;34437;-33.956;151.076;2023-05-10T14:26:18;19.30;60.80
48648;DHT22;34437;-33.956;151.076;2023-05-10T14:28:42;19.30;60.90
48648;DHT22;34437;-33.956;151.076;2023-05-10T14:31:08;19.30;60.50
48648;DHT22;34437;-33.956;151.076;2023-05-10T14:33:33;19.30;60.70
48648;DHT22;34437;-33.956;151.076;2023-05-10T14:35:56;19.30;60.70
48648;DHT22;34437;-33.956;151.076;2023-05-10T14:38:18;19.30;60.90
48648;DHT22;34437;-33.956;151.076;2023-05-10T14:40:41;19.30;60.70
48648;DHT22;34437;-33.956;151.076;2023-05-10T14:43:04;19.30;61.70
48648;DHT22;34437;-33.956;151.076;2023-05-10T14:45:27;19.20;61.00
48648;DHT22;34437;-33.956;151.076;2023-05-10T14:47:50;19.20;61.00
48648;DHT22;34437;-33.956;151.076;2023-05-10T14:50:13;19.20;60.50
48648;DHT22;34437;-33.956;151.076;2023-05-10T14:52:35;19.20;60.40
48648;DHT22;34437;-33.956;151.076;2023-05-10T14:57:40;19.20;60.40
48648;DHT22;34437;-33.956;151.076;2023-05-10T15:00:03;19.20;60.90
48648;DHT22;34437;-33.956;151.076;2023-05-10T15:02:26;19.10;61.30
48648;DHT22;34437;-33.956;151.076;2023-05-10T15:04:51;19.20;61.50
48648;DHT22;34437;-33.956;151.076;2023-05-10T15:07:17;19.10;61.10